sensor_id;sensor_type;location;lat;lon;timestamp;P1;durP1;ratioP1;P2;durP2;ratioP2
13584;SDS011;6863;48.402;9.994;2022-09-09T00:00:17;7.30;;;3.73;;
13584;SDS011;6863;48.402;9.994;2022-09-09T00:02:46;6.50;;;3.90;;
13584;SDS011;6863;48.402;9.994;2022-09-09T00:05:29;8.47;;;4.97;;
13584;SDS011;6863;48.402;9.994;2022-09-09T00:07:59;5.67;;;3.73;;
13584;SDS011;6863;48.402;9.994;2022-09-09T00:10:37;8.10;;;4.53;;
13584;SDS011;6863;48.402;9.994;2022-09-09T00:15:42;12.80;;;4.60;;
13584;SDS011;6863;48.402;9.994;2022-09-09T00:23:39;7.37;;;4.30;;
13584;SDS011;6863;48.402;9.994;2022-09-09T00:26:12;8.70;;;4.90;;
13584;SDS011;6863;48.402;9.994;2022-09-09T00:28:50;6.90;;;4.27;;
13584;SDS011;6863;48.402;9.994;2022-09-09T00:31:26;7.07;;;4.30;;
13584;SDS011;6863;48.402;9.994;2022-09-09T00:33:54;8.87;;;3.97;;
13584;SDS011;6863;48.402;9.994;2022-09-09T00:36:43;8.07;;;4.30;;
13584;SDS011;6863;48.402;9.994;2022-09-09T00:39:23;7.17;;;3.80;;
13584;SDS011;6863;48.402;9.994;2022-09-09T00:41:58;6.10;;;3.50;;
13584;SDS011;6863;48.402;9.994;2022-09-09T00:56:11;11.83;;;4.00;;
13584;SDS011;6863;48.402;9.994;2022-09-09T00:58:52;5.27;;;4.00;;
13584;SDS011;6863;48.402;9.994;2022-09-09T01:01:36;8.53;;;4.30;;
13584;SDS011;6863;48.402;9.994;2022-09-09T01:04:04;8.60;;;4.70;;
13584;SDS011;6863;48.402;9.994;2022-09-09T01:06:41;9.13;;;4.07;;
13584;SDS011;6863;48.402;9.994;2022-09-09T01:09:13;6.40;;;4.23;;
13584;SDS011;6863;48.402;9.994;2022-09-09T01:12:13;9.03;;;3.90;;
13584;SDS011;6863;48.402;9.994;2022-09-09T01:14:45;6.87;;;3.83;;
13584;SDS011;6863;48.402;9.994;2022-09-09T01:22:15;9.30;;;3.90;;
13584;SDS011;6863;48.402;9.994;2022-09-09T01:25:14;5.57;;;3.83;;
13584;SDS011;6863;48.402;9.994;2022-09-09T01:28:02;7.97;;;4.13;;
13584;SDS011;6863;48.402;9.994;2022-09-09T01:30:33;10.47;;;4.13;;
13584;SDS011;6863;48.402;9.994;2022-09-09T01:33:03;6.43;;;3.53;;
13584;SDS011;6863;48.402;9.994;2022-09-09T01:38:29;8.87;;;4.10;;
13584;SDS011;6863;48.402;9.994;2022-09-09T01:40:57;5.73;;;3.83;;
13584;SDS011;6863;48.402;9.994;2022-09-09T01:43:23;8.10;;;4.17;;
13584;SDS011;6863;48.402;9.994;2022-09-09T01:45:51;6.53;;;3.70;;
13584;SDS011;6863;48.402;9.994;2022-09-09T01:48:19;5.60;;;3.03;;
13584;SDS011;6863;48.402;9.994;2022-09-09T01:50:47;4.93;;;3.77;;
13584;SDS011;6863;48.402;9.994;2022-09-09T01:53:13;10.00;;;3.73;;
13584;SDS011;6863;48.402;9.994;2022-09-09T01:55:44;7.33;;;3.60;;
13584;SDS011;6863;48.402;9.994;2022-09-09T02:01:02;5.57;;;3.57;;
13584;SDS011;6863;48.402;9.994;2022-09-09T02:03:31;4.70;;;3.27;;
13584;SDS011;6863;48.402;9.994;2022-09-09T02:06:17;5.70;;;3.67;;
13584;SDS011;6863;48.402;9.994;2022-09-09T02:08:55;4.93;;;3.47;;
13584;SDS011;6863;48.402;9.994;2022-09-09T02:11:26;8.30;;;3.83;;
13584;SDS011;6863;48.402;9.994;2022-09-09T02:13:57;4.07;;;3.10;;
13584;SDS011;6863;48.402;9.994;2022-09-09T02:19:11;8.50;;;3.07;;
13584;SDS011;6863;48.402;9.994;2022-09-09T02:21:50;4.93;;;3.10;;
13584;SDS011;6863;48.402;9.994;2022-09-09T02:24:20;6.50;;;3.30;;
13584;SDS011;6863;48.402;9.994;2022-09-09T02:26:47;6.73;;;3.60;;
13584;SDS011;6863;48.402;9.994;2022-09-09T02:29:21;5.00;;;2.80;;
13584;SDS011;6863;48.402;9.994;2022-09-09T02:31:51;8.00;;;4.10;;
13584;SDS011;6863;48.402;9.994;2022-09-09T02:34:22;4.07;;;3.47;;
13584;SDS011;6863;48.402;9.994;2022-09-09T02:36:50;3.73;;;3.20;;
13584;SDS011;6863;48.402;9.994;2022-09-09T02:39:18;3.83;;;2.40;;
13584;SDS011;6863;48.402;9.994;2022-09-09T02:41:44;2.40;;;2.20;;
13584;SDS011;6863;48.402;9.994;2022-09-09T02:44:13;5.67;;;3.00;;
13584;SDS011;6863;48.402;9.994;2022-09-09T02:52:16;5.77;;;2.83;;
13584;SDS011;6863;48.402;9.994;2022-09-09T02:54:45;4.80;;;3.20;;
13584;SDS011;6863;48.402;9.994;2022-09-09T02:59:48;5.13;;;3.03;;
13584;SDS011;6863;48.402;9.994;2022-09-09T03:02:15;5.10;;;3.23;;
13584;SDS011;6863;48.402;9.994;2022-09-09T03:04:40;3.83;;;3.00;;
13584;SDS011;6863;48.402;9.994;2022-09-09T03:07:09;5.03;;;3.20;;
13584;SDS011;6863;48.402;9.994;2022-09-09T03:09:35;5.27;;;4.73;;
13584;SDS011;6863;48.402;9.994;2022-09-09T03:12:01;8.17;;;4.23;;
13584;SDS011;6863;48.402;9.994;2022-09-09T03:14:29;4.93;;;2.70;;
13584;SDS011;6863;48.402;9.994;2022-09-09T03:16:55;4.53;;;2.97;;
13584;SDS011;6863;48.402;9.994;2022-09-09T03:19:22;5.30;;;2.73;;
13584;SDS011;6863;48.402;9.994;2022-09-09T03:21:48;4.70;;;2.60;;
13584;SDS011;6863;48.402;9.994;2022-09-09T03:24:14;5.37;;;3.07;;
13584;SDS011;6863;48.402;9.994;2022-09-09T03:26:40;7.70;;;3.60;;
13584;SDS011;6863;48.402;9.994;2022-09-09T03:29:09;3.63;;;3.07;;
13584;SDS011;6863;48.402;9.994;2022-09-09T03:31:37;6.13;;;3.37;;
13584;SDS011;6863;48.402;9.994;2022-09-09T03:34:03;5.30;;;3.10;;
13584;SDS011;6863;48.402;9.994;2022-09-09T03:36:29;5.27;;;3.30;;
13584;SDS011;6863;48.402;9.994;2022-09-09T03:38:55;5.37;;;3.30;;
13584;SDS011;6863;48.402;9.994;2022-09-09T03:41:22;4.87;;;2.90;;
13584;SDS011;6863;48.402;9.994;2022-09-09T03:43:49;5.50;;;3.43;;
13584;SDS011;6863;48.402;9.994;2022-09-09T03:46:19;4.20;;;3.27;;
13584;SDS011;6863;48.402;9.994;2022-09-09T03:48:45;4.77;;;3.13;;
13584;SDS011;6863;48.402;9.994;2022-09-09T03:51:11;6.67;;;2.80;;
13584;SDS011;6863;48.402;9.994;2022-09-09T03:53:37;3.60;;;3.00;;
13584;SDS011;6863;48.402;9.994;2022-09-09T03:56:03;4.90;;;2.90;;
13584;SDS011;6863;48.402;9.994;2022-09-09T03:58:31;4.27;;;2.90;;
13584;SDS011;6863;48.402;9.994;2022-09-09T04:01:02;3.90;;;2.93;;
13584;SDS011;6863;48.402;9.994;2022-09-09T04:03:30;3.33;;;2.77;;
13584;SDS011;6863;48.402;9.994;2022-09-09T04:05:57;8.07;;;2.93;;
13584;SDS011;6863;48.402;9.994;2022-09-09T04:08:23;5.10;;;3.00;;
13584;SDS011;6863;48.402;9.994;2022-09-09T04:10:50;3.20;;;2.90;;
13584;SDS011;6863;48.402;9.994;2022-09-09T04:13:16;3.70;;;2.90;;
13584;SDS011;6863;48.402;9.994;2022-09-09T04:15:48;5.60;;;3.47;;
13584;SDS011;6863;48.402;9.994;2022-09-09T04:18:16;3.90;;;3.27;;
13584;SDS011;6863;48.402;9.994;2022-09-09T04:20:42;4.30;;;3.70;;
13584;SDS011;6863;48.402;9.994;2022-09-09T04:23:08;3.83;;;3.17;;
13584;SDS011;6863;48.402;9.994;2022-09-09T04:25:34;5.13;;;2.83;;
13584;SDS011;6863;48.402;9.994;2022-09-09T04:27:59;6.20;;;3.27;;
13584;SDS011;6863;48.402;9.994;2022-09-09T04:30:25;3.73;;;2.93;;
13584;SDS011;6863;48.402;9.994;2022-09-09T04:32:52;7.20;;;4.60;;
13584;SDS011;6863;48.402;9.994;2022-09-09T04:35:18;23.13;;;16.67;;
13584;SDS011;6863;48.402;9.994;2022-09-09T04:37:45;7.07;;;4.00;;
13584;SDS011;6863;48.402;9.994;2022-09-09T04:40:10;4.53;;;3.57;;
13584;SDS011;6863;48.402;9.994;2022-09-09T04:42:37;5.17;;;3.40;;
13584;SDS011;6863;48.402;9.994;2022-09-09T04:45:03;3.97;;;3.47;;
13584;SDS011;6863;48.402;9.994;2022-09-09T04:47:31;6.30;;;4.30;;
13584;SDS011;6863;48.402;9.994;2022-09-09T04:49:56;3.63;;;3.33;;
13584;SDS011;6863;48.402;9.994;2022-09-09T04:52:22;4.93;;;3.53;;
13584;SDS011;6863;48.402;9.994;2022-09-09T04:54:48;7.67;;;3.70;;
13584;SDS011;6863;48.402;9.994;2022-09-09T04:57:13;4.43;;;3.70;;
13584;SDS011;6863;48.402;9.994;2022-09-09T04:59:39;5.47;;;3.67;;
13584;SDS011;6863;48.402;9.994;2022-09-09T05:02:05;4.30;;;3.23;;
13584;SDS011;6863;48.402;9.994;2022-09-09T05:04:30;5.20;;;3.80;;
13584;SDS011;6863;48.402;9.994;2022-09-09T05:06:56;4.83;;;4.00;;
13584;SDS011;6863;48.402;9.994;2022-09-09T05:09:22;3.63;;;3.33;;
13584;SDS011;6863;48.402;9.994;2022-09-09T05:11:47;3.57;;;3.23;;
13584;SDS011;6863;48.402;9.994;2022-09-09T05:14:13;5.40;;;3.50;;
13584;SDS011;6863;48.402;9.994;2022-09-09T05:16:39;4.57;;;3.10;;
13584;SDS011;6863;48.402;9.994;2022-09-09T05:19:05;7.20;;;3.50;;
13584;SDS011;6863;48.402;9.994;2022-09-09T05:21:33;7.30;;;4.47;;
13584;SDS011;6863;48.402;9.994;2022-09-09T05:23:58;6.00;;;3.93;;
13584;SDS011;6863;48.402;9.994;2022-09-09T05:26:25;4.03;;;3.37;;
13584;SDS011;6863;48.402;9.994;2022-09-09T05:28:51;5.13;;;3.40;;
13584;SDS011;6863;48.402;9.994;2022-09-09T05:31:17;7.20;;;3.97;;
13584;SDS011;6863;48.402;9.994;2022-09-09T05:33:44;9.70;;;3.90;;
13584;SDS011;6863;48.402;9.994;2022-09-09T05:36:12;9.73;;;4.17;;
13584;SDS011;6863;48.402;9.994;2022-09-09T05:38:39;5.33;;;4.30;;
13584;SDS011;6863;48.402;9.994;2022-09-09T05:41:06;5.17;;;3.67;;
13584;SDS011;6863;48.402;9.994;2022-09-09T05:43:32;4.53;;;3.83;;
13584;SDS011;6863;48.402;9.994;2022-09-09T05:46:03;4.63;;;3.60;;
13584;SDS011;6863;48.402;9.994;2022-09-09T05:48:34;4.30;;;3.87;;
13584;SDS011;6863;48.402;9.994;2022-09-09T05:51:02;4.47;;;3.97;;
13584;SDS011;6863;48.402;9.994;2022-09-09T05:53:29;5.63;;;4.40;;
13584;SDS011;6863;48.402;9.994;2022-09-09T05:56:06;6.17;;;4.37;;
13584;SDS011;6863;48.402;9.994;2022-09-09T05:58:32;6.47;;;4.60;;
13584;SDS011;6863;48.402;9.994;2022-09-09T06:01:12;4.23;;;3.80;;
13584;SDS011;6863;48.402;9.994;2022-09-09T06:03:40;5.47;;;4.80;;
13584;SDS011;6863;48.402;9.994;2022-09-09T06:06:08;5.10;;;3.77;;
13584;SDS011;6863;48.402;9.994;2022-09-09T06:08:36;7.17;;;4.07;;
13584;SDS011;6863;48.402;9.994;2022-09-09T06:13:31;5.57;;;4.27;;
13584;SDS011;6863;48.402;9.994;2022-09-09T06:15:57;7.20;;;4.63;;
13584;SDS011;6863;48.402;9.994;2022-09-09T06:18:23;4.73;;;3.50;;
13584;SDS011;6863;48.402;9.994;2022-09-09T06:21:02;4.43;;;3.53;;
13584;SDS011;6863;48.402;9.994;2022-09-09T06:23:31;4.83;;;3.40;;
13584;SDS011;6863;48.402;9.994;2022-09-09T06:26:00;4.53;;;3.60;;
13584;SDS011;6863;48.402;9.994;2022-09-09T06:28:35;6.13;;;3.83;;
13584;SDS011;6863;48.402;9.994;2022-09-09T06:31:02;5.07;;;3.57;;
13584;SDS011;6863;48.402;9.994;2022-09-09T06:33:33;4.43;;;3.80;;
13584;SDS011;6863;48.402;9.994;2022-09-09T06:36:00;4.83;;;3.47;;
13584;SDS011;6863;48.402;9.994;2022-09-09T06:38:28;4.17;;;3.50;;
13584;SDS011;6863;48.402;9.994;2022-09-09T06:40:54;7.80;;;3.63;;
13584;SDS011;6863;48.402;9.994;2022-09-09T06:43:23;4.97;;;3.50;;
13584;SDS011;6863;48.402;9.994;2022-09-09T06:46:00;4.17;;;3.30;;
13584;SDS011;6863;48.402;9.994;2022-09-09T06:48:27;5.83;;;3.07;;
13584;SDS011;6863;48.402;9.994;2022-09-09T06:51:04;12.90;;;10.40;;
13584;SDS011;6863;48.402;9.994;2022-09-09T06:53:35;3.93;;;3.63;;
13584;SDS011;6863;48.402;9.994;2022-09-09T06:56:02;5.63;;;2.90;;
13584;SDS011;6863;48.402;9.994;2022-09-09T06:58:42;2.87;;;2.40;;
13584;SDS011;6863;48.402;9.994;2022-09-09T07:01:12;3.57;;;2.70;;
13584;SDS011;6863;48.402;9.994;2022-09-09T07:03:40;5.00;;;2.70;;
13584;SDS011;6863;48.402;9.994;2022-09-09T07:06:08;2.77;;;2.57;;
13584;SDS011;6863;48.402;9.994;2022-09-09T07:08:39;2.67;;;2.43;;
13584;SDS011;6863;48.402;9.994;2022-09-09T07:11:05;4.70;;;3.10;;
13584;SDS011;6863;48.402;9.994;2022-09-09T07:13:32;3.60;;;2.25;;
13584;SDS011;6863;48.402;9.994;2022-09-09T07:16:11;3.85;;;2.42;;
13584;SDS011;6863;48.402;9.994;2022-09-09T07:18:39;3.95;;;2.50;;
13584;SDS011;6863;48.402;9.994;2022-09-09T07:21:05;3.20;;;2.60;;
13584;SDS011;6863;48.402;9.994;2022-09-09T07:23:31;4.40;;;2.80;;
13584;SDS011;6863;48.402;9.994;2022-09-09T07:25:57;2.65;;;2.40;;
13584;SDS011;6863;48.402;9.994;2022-09-09T07:28:24;5.07;;;2.35;;
13584;SDS011;6863;48.402;9.994;2022-09-09T07:30:58;2.83;;;2.55;;
13584;SDS011;6863;48.402;9.994;2022-09-09T07:33:27;3.10;;;2.83;;
13584;SDS011;6863;48.402;9.994;2022-09-09T07:36:01;2.67;;;2.40;;
13584;SDS011;6863;48.402;9.994;2022-09-09T07:38:28;4.45;;;2.83;;
13584;SDS011;6863;48.402;9.994;2022-09-09T07:41:01;3.50;;;2.70;;
13584;SDS011;6863;48.402;9.994;2022-09-09T07:43:28;4.57;;;2.53;;
13584;SDS011;6863;48.402;9.994;2022-09-09T07:45:57;3.25;;;2.58;;
13584;SDS011;6863;48.402;9.994;2022-09-09T07:48:23;3.05;;;2.40;;
13584;SDS011;6863;48.402;9.994;2022-09-09T07:50:48;5.13;;;2.90;;
13584;SDS011;6863;48.402;9.994;2022-09-09T07:53:14;3.35;;;2.40;;
13584;SDS011;6863;48.402;9.994;2022-09-09T07:55:39;3.55;;;2.45;;
13584;SDS011;6863;48.402;9.994;2022-09-09T07:58:05;3.55;;;2.58;;
13584;SDS011;6863;48.402;9.994;2022-09-09T08:00:31;3.67;;;3.28;;
13584;SDS011;6863;48.402;9.994;2022-09-09T08:02:58;6.43;;;4.72;;
13584;SDS011;6863;48.402;9.994;2022-09-09T08:05:27;5.80;;;4.00;;
13584;SDS011;6863;48.402;9.994;2022-09-09T08:07:53;3.50;;;3.20;;
13584;SDS011;6863;48.402;9.994;2022-09-09T08:10:18;3.78;;;3.55;;
13584;SDS011;6863;48.402;9.994;2022-09-09T08:12:44;3.63;;;3.33;;
13584;SDS011;6863;48.402;9.994;2022-09-09T08:15:10;3.63;;;3.33;;
13584;SDS011;6863;48.402;9.994;2022-09-09T08:17:35;4.80;;;3.75;;
13584;SDS011;6863;48.402;9.994;2022-09-09T08:20:02;5.03;;;3.15;;
13584;SDS011;6863;48.402;9.994;2022-09-09T08:22:31;3.67;;;2.78;;
13584;SDS011;6863;48.402;9.994;2022-09-09T08:24:57;4.75;;;2.53;;
13584;SDS011;6863;48.402;9.994;2022-09-09T08:27:22;4.90;;;3.60;;
13584;SDS011;6863;48.402;9.994;2022-09-09T08:29:49;4.38;;;2.88;;
13584;SDS011;6863;48.402;9.994;2022-09-09T08:32:14;3.85;;;2.53;;
13584;SDS011;6863;48.402;9.994;2022-09-09T08:34:41;3.28;;;3.03;;
13584;SDS011;6863;48.402;9.994;2022-09-09T08:37:10;3.83;;;2.45;;
13584;SDS011;6863;48.402;9.994;2022-09-09T08:39:35;3.63;;;3.08;;
13584;SDS011;6863;48.402;9.994;2022-09-09T08:42:13;3.78;;;2.60;;
13584;SDS011;6863;48.402;9.994;2022-09-09T08:45:12;4.10;;;2.28;;
13584;SDS011;6863;48.402;9.994;2022-09-09T08:50:17;3.20;;;1.90;;
13584;SDS011;6863;48.402;9.994;2022-09-09T08:53:22;2.75;;;2.20;;
13584;SDS011;6863;48.402;9.994;2022-09-09T08:55:58;3.03;;;2.22;;
13584;SDS011;6863;48.402;9.994;2022-09-09T08:58:32;3.35;;;2.10;;
13584;SDS011;6863;48.402;9.994;2022-09-09T09:01:12;2.75;;;2.15;;
13584;SDS011;6863;48.402;9.994;2022-09-09T09:12:22;2.40;;;1.90;;
13584;SDS011;6863;48.402;9.994;2022-09-09T09:14:49;4.60;;;2.28;;
13584;SDS011;6863;48.402;9.994;2022-09-09T09:17:19;3.03;;;2.25;;
13584;SDS011;6863;48.402;9.994;2022-09-09T09:19:47;2.85;;;2.08;;
13584;SDS011;6863;48.402;9.994;2022-09-09T09:27:18;2.55;;;2.03;;
13584;SDS011;6863;48.402;9.994;2022-09-09T09:29:56;2.53;;;2.33;;
13584;SDS011;6863;48.402;9.994;2022-09-09T09:32:23;3.38;;;2.42;;
13584;SDS011;6863;48.402;9.994;2022-09-09T09:34:51;2.65;;;2.22;;
13584;SDS011;6863;48.402;9.994;2022-09-09T09:37:29;2.40;;;2.20;;
13584;SDS011;6863;48.402;9.994;2022-09-09T09:40:12;2.75;;;2.20;;
13584;SDS011;6863;48.402;9.994;2022-09-09T09:42:56;3.35;;;2.60;;
13584;SDS011;6863;48.402;9.994;2022-09-09T09:45:43;5.00;;;2.65;;
13584;SDS011;6863;48.402;9.994;2022-09-09T09:48:13;1.90;;;1.50;;
13584;SDS011;6863;48.402;9.994;2022-09-09T09:53:43;2.45;;;2.00;;
13584;SDS011;6863;48.402;9.994;2022-09-09T09:58:32;4.50;;;1.95;;
13584;SDS011;6863;48.402;9.994;2022-09-09T10:01:03;5.90;;;4.60;;
13584;SDS011;6863;48.402;9.994;2022-09-09T10:03:30;5.03;;;2.33;;
13584;SDS011;6863;48.402;9.994;2022-09-09T10:05:57;2.22;;;1.85;;
13584;SDS011;6863;48.402;9.994;2022-09-09T10:08:24;3.78;;;1.60;;
13584;SDS011;6863;48.402;9.994;2022-09-09T10:14:20;2.78;;;1.77;;
13584;SDS011;6863;48.402;9.994;2022-09-09T10:19:38;2.30;;;1.50;;
13584;SDS011;6863;48.402;9.994;2022-09-09T10:25:13;2.20;;;1.98;;
13584;SDS011;6863;48.402;9.994;2022-09-09T10:28:29;2.58;;;1.58;;
13584;SDS011;6863;48.402;9.994;2022-09-09T10:31:21;2.95;;;1.73;;
13584;SDS011;6863;48.402;9.994;2022-09-09T10:37:26;1.40;;;1.30;;
13584;SDS011;6863;48.402;9.994;2022-09-09T10:40:21;2.63;;;1.40;;
13584;SDS011;6863;48.402;9.994;2022-09-09T10:42:53;2.13;;;1.48;;
13584;SDS011;6863;48.402;9.994;2022-09-09T10:51:12;3.05;;;1.70;;
13584;SDS011;6863;48.402;9.994;2022-09-09T10:53:53;5.38;;;3.50;;
13584;SDS011;6863;48.402;9.994;2022-09-09T10:56:48;3.45;;;3.00;;
13584;SDS011;6863;48.402;9.994;2022-09-09T10:59:22;3.25;;;1.83;;
13584;SDS011;6863;48.402;9.994;2022-09-09T11:02:05;3.42;;;1.65;;
13584;SDS011;6863;48.402;9.994;2022-09-09T11:04:41;4.40;;;2.08;;
13584;SDS011;6863;48.402;9.994;2022-09-09T11:07:14;2.15;;;1.38;;
13584;SDS011;6863;48.402;9.994;2022-09-09T11:09:52;2.15;;;1.40;;
13584;SDS011;6863;48.402;9.994;2022-09-09T11:12:23;2.28;;;1.42;;
13584;SDS011;6863;48.402;9.994;2022-09-09T11:14:51;2.10;;;1.40;;
13584;SDS011;6863;48.402;9.994;2022-09-09T11:17:45;4.68;;;1.50;;
13584;SDS011;6863;48.402;9.994;2022-09-09T11:20:14;2.33;;;1.70;;
13584;SDS011;6863;48.402;9.994;2022-09-09T11:22:44;2.97;;;1.50;;
13584;SDS011;6863;48.402;9.994;2022-09-09T11:25:17;1.60;;;1.50;;
13584;SDS011;6863;48.402;9.994;2022-09-09T11:30:18;3.92;;;1.27;;
13584;SDS011;6863;48.402;9.994;2022-09-09T11:40:53;1.23;;;1.13;;
13584;SDS011;6863;48.402;9.994;2022-09-09T11:46:06;1.85;;;1.20;;
13584;SDS011;6863;48.402;9.994;2022-09-09T11:48:34;2.13;;;1.40;;
13584;SDS011;6863;48.402;9.994;2022-09-09T11:51:06;1.90;;;1.40;;
13584;SDS011;6863;48.402;9.994;2022-09-09T11:53:47;1.50;;;1.33;;
13584;SDS011;6863;48.402;9.994;2022-09-09T11:56:22;2.60;;;1.20;;
13584;SDS011;6863;48.402;9.994;2022-09-09T12:01:44;2.17;;;1.15;;
13584;SDS011;6863;48.402;9.994;2022-09-09T12:07:00;1.90;;;1.10;;
13584;SDS011;6863;48.402;9.994;2022-09-09T12:09:41;4.82;;;1.40;;
13584;SDS011;6863;48.402;9.994;2022-09-09T12:14:43;1.48;;;1.05;;
13584;SDS011;6863;48.402;9.994;2022-09-09T12:17:20;1.65;;;1.20;;
13584;SDS011;6863;48.402;9.994;2022-09-09T12:19:48;1.30;;;1.20;;
13584;SDS011;6863;48.402;9.994;2022-09-09T12:22:34;2.25;;;1.10;;
13584;SDS011;6863;48.402;9.994;2022-09-09T12:25:39;1.77;;;1.27;;
13584;SDS011;6863;48.402;9.994;2022-09-09T12:28:19;1.23;;;1.15;;
13584;SDS011;6863;48.402;9.994;2022-09-09T12:33:47;1.40;;;1.30;;
13584;SDS011;6863;48.402;9.994;2022-09-09T12:36:23;2.42;;;1.90;;
13584;SDS011;6863;48.402;9.994;2022-09-09T12:38:53;2.03;;;1.60;;
13584;SDS011;6863;48.402;9.994;2022-09-09T12:41:22;3.28;;;2.30;;
13584;SDS011;6863;48.402;9.994;2022-09-09T12:43:50;1.77;;;1.13;;
13584;SDS011;6863;48.402;9.994;2022-09-09T12:46:21;3.42;;;1.10;;
13584;SDS011;6863;48.402;9.994;2022-09-09T12:48:53;1.23;;;1.00;;
13584;SDS011;6863;48.402;9.994;2022-09-09T12:51:21;1.52;;;1.20;;
13584;SDS011;6863;48.402;9.994;2022-09-09T12:53:51;1.27;;;1.17;;
13584;SDS011;6863;48.402;9.994;2022-09-09T12:56:21;4.10;;;1.77;;
13584;SDS011;6863;48.402;9.994;2022-09-09T12:58:52;1.63;;;1.30;;
13584;SDS011;6863;48.402;9.994;2022-09-09T13:03:49;2.00;;;1.70;;
13584;SDS011;6863;48.402;9.994;2022-09-09T13:06:20;2.28;;;1.55;;
13584;SDS011;6863;48.402;9.994;2022-09-09T13:08:51;1.67;;;1.15;;
13584;SDS011;6863;48.402;9.994;2022-09-09T13:11:39;1.58;;;1.30;;
13584;SDS011;6863;48.402;9.994;2022-09-09T13:14:12;3.70;;;1.33;;
13584;SDS011;6863;48.402;9.994;2022-09-09T13:16:54;2.25;;;1.20;;
13584;SDS011;6863;48.402;9.994;2022-09-09T13:19:22;2.30;;;1.40;;
13584;SDS011;6863;48.402;9.994;2022-09-09T13:21:50;1.88;;;1.38;;
13584;SDS011;6863;48.402;9.994;2022-09-09T13:27:04;2.83;;;1.30;;
13584;SDS011;6863;48.402;9.994;2022-09-09T13:29:52;3.42;;;1.27;;
13584;SDS011;6863;48.402;9.994;2022-09-09T13:32:19;1.02;;;1.02;;
13584;SDS011;6863;48.402;9.994;2022-09-09T13:34:52;2.85;;;1.38;;
13584;SDS011;6863;48.402;9.994;2022-09-09T13:37:36;1.70;;;1.60;;
13584;SDS011;6863;48.402;9.994;2022-09-09T13:40:14;2.97;;;1.30;;
13584;SDS011;6863;48.402;9.994;2022-09-09T13:42:43;3.17;;;2.38;;
13584;SDS011;6863;48.402;9.994;2022-09-09T13:45:22;1.52;;;1.17;;
13584;SDS011;6863;48.402;9.994;2022-09-09T13:47:51;1.58;;;1.20;;
13584;SDS011;6863;48.402;9.994;2022-09-09T13:53:04;2.90;;;1.33;;
13584;SDS011;6863;48.402;9.994;2022-09-09T13:55:32;2.22;;;1.40;;
13584;SDS011;6863;48.402;9.994;2022-09-09T13:57:59;2.28;;;1.00;;
13584;SDS011;6863;48.402;9.994;2022-09-09T14:00:26;1.33;;;1.20;;
13584;SDS011;6863;48.402;9.994;2022-09-09T14:02:55;1.58;;;1.10;;
13584;SDS011;6863;48.402;9.994;2022-09-09T14:05:20;1.52;;;1.23;;
13584;SDS011;6863;48.402;9.994;2022-09-09T14:07:47;2.20;;;1.20;;
13584;SDS011;6863;48.402;9.994;2022-09-09T14:10:13;3.08;;;1.25;;
13584;SDS011;6863;48.402;9.994;2022-09-09T14:12:40;1.73;;;1.20;;
13584;SDS011;6863;48.402;9.994;2022-09-09T14:15:06;1.70;;;1.40;;
13584;SDS011;6863;48.402;9.994;2022-09-09T14:17:34;0.90;;;0.90;;
13584;SDS011;6863;48.402;9.994;2022-09-09T14:20:01;1.58;;;1.10;;
13584;SDS011;6863;48.402;9.994;2022-09-09T14:22:34;1.40;;;1.30;;
13584;SDS011;6863;48.402;9.994;2022-09-09T14:25:00;1.13;;;1.02;;
13584;SDS011;6863;48.402;9.994;2022-09-09T14:27:26;1.45;;;1.30;;
13584;SDS011;6863;48.402;9.994;2022-09-09T14:29:51;1.85;;;1.20;;
13584;SDS011;6863;48.402;9.994;2022-09-09T14:32:18;2.90;;;1.40;;
13584;SDS011;6863;48.402;9.994;2022-09-09T14:34:44;2.85;;;1.67;;
13584;SDS011;6863;48.402;9.994;2022-09-09T14:37:10;2.80;;;1.90;;
13584;SDS011;6863;48.402;9.994;2022-09-09T14:39:35;1.45;;;1.35;;
13584;SDS011;6863;48.402;9.994;2022-09-09T14:42:01;2.67;;;1.10;;
13584;SDS011;6863;48.402;9.994;2022-09-09T14:44:27;1.90;;;1.40;;
13584;SDS011;6863;48.402;9.994;2022-09-09T14:46:53;1.13;;;1.02;;
13584;SDS011;6863;48.402;9.994;2022-09-09T14:49:19;1.48;;;1.38;;
13584;SDS011;6863;48.402;9.994;2022-09-09T14:51:45;2.58;;;0.90;;
13584;SDS011;6863;48.402;9.994;2022-09-09T14:54:11;1.08;;;0.80;;
13584;SDS011;6863;48.402;9.994;2022-09-09T14:56:36;2.15;;;1.13;;
13584;SDS011;6863;48.402;9.994;2022-09-09T14:59:03;1.10;;;0.85;;
13584;SDS011;6863;48.402;9.994;2022-09-09T15:01:30;2.30;;;1.45;;
13584;SDS011;6863;48.402;9.994;2022-09-09T15:03:58;1.15;;;0.85;;
13584;SDS011;6863;48.402;9.994;2022-09-09T15:06:25;1.90;;;1.25;;
13584;SDS011;6863;48.402;9.994;2022-09-09T15:08:53;1.20;;;1.10;;
13584;SDS011;6863;48.402;9.994;2022-09-09T15:11:23;2.25;;;1.58;;
13584;SDS011;6863;48.402;9.994;2022-09-09T15:13:51;1.58;;;1.10;;
13584;SDS011;6863;48.402;9.994;2022-09-09T15:16:18;3.08;;;1.40;;
13584;SDS011;6863;48.402;9.994;2022-09-09T15:18:45;1.70;;;1.30;;
13584;SDS011;6863;48.402;9.994;2022-09-09T15:21:12;1.45;;;1.35;;
13584;SDS011;6863;48.402;9.994;2022-09-09T15:23:39;1.30;;;1.20;;
13584;SDS011;6863;48.402;9.994;2022-09-09T15:26:05;2.70;;;1.40;;
13584;SDS011;6863;48.402;9.994;2022-09-09T15:28:32;1.65;;;1.00;;
13584;SDS011;6863;48.402;9.994;2022-09-09T15:31:04;3.15;;;1.10;;
13584;SDS011;6863;48.402;9.994;2022-09-09T15:33:32;1.65;;;1.10;;
13584;SDS011;6863;48.402;9.994;2022-09-09T15:35:58;2.85;;;1.20;;
13584;SDS011;6863;48.402;9.994;2022-09-09T15:38:24;1.90;;;0.90;;
13584;SDS011;6863;48.402;9.994;2022-09-09T15:40:53;1.52;;;1.08;;
13584;SDS011;6863;48.402;9.994;2022-09-09T15:43:19;2.08;;;1.25;;
13584;SDS011;6863;48.402;9.994;2022-09-09T15:45:45;1.20;;;0.90;;
13584;SDS011;6863;48.402;9.994;2022-09-09T15:48:13;2.28;;;1.08;;
13584;SDS011;6863;48.402;9.994;2022-09-09T15:53:11;1.20;;;1.10;;
13584;SDS011;6863;48.402;9.994;2022-09-09T15:55:37;1.45;;;0.98;;
13584;SDS011;6863;48.402;9.994;2022-09-09T15:58:03;2.50;;;1.27;;
13584;SDS011;6863;48.402;9.994;2022-09-09T16:00:29;1.92;;;1.10;;
13584;SDS011;6863;48.402;9.994;2022-09-09T16:02:54;1.40;;;1.30;;
13584;SDS011;6863;48.402;9.994;2022-09-09T16:05:20;1.58;;;1.17;;
13584;SDS011;6863;48.402;9.994;2022-09-09T16:07:45;1.70;;;1.10;;
13584;SDS011;6863;48.402;9.994;2022-09-09T16:10:12;1.25;;;1.00;;
13584;SDS011;6863;48.402;9.994;2022-09-09T16:12:38;1.83;;;0.90;;
13584;SDS011;6863;48.402;9.994;2022-09-09T16:15:04;0.82;;;0.82;;
13584;SDS011;6863;48.402;9.994;2022-09-09T16:17:31;1.75;;;1.00;;
13584;SDS011;6863;48.402;9.994;2022-09-09T16:20:02;3.17;;;0.90;;
13584;SDS011;6863;48.402;9.994;2022-09-09T16:22:30;1.23;;;1.00;;
13584;SDS011;6863;48.402;9.994;2022-09-09T16:24:55;1.65;;;1.20;;
13584;SDS011;6863;48.402;9.994;2022-09-09T16:27:21;2.67;;;1.15;;
13584;SDS011;6863;48.402;9.994;2022-09-09T16:29:48;2.13;;;1.25;;
13584;SDS011;6863;48.402;9.994;2022-09-09T16:32:14;1.08;;;1.00;;
13584;SDS011;6863;48.402;9.994;2022-09-09T16:34:39;1.33;;;1.15;;
13584;SDS011;6863;48.402;9.994;2022-09-09T16:37:05;1.20;;;1.10;;
13584;SDS011;6863;48.402;9.994;2022-09-09T16:39:30;2.03;;;1.15;;
13584;SDS011;6863;48.402;9.994;2022-09-09T16:41:56;2.20;;;1.27;;
13584;SDS011;6863;48.402;9.994;2022-09-09T16:44:22;1.13;;;1.10;;
13584;SDS011;6863;48.402;9.994;2022-09-09T16:46:48;1.45;;;1.10;;
13584;SDS011;6863;48.402;9.994;2022-09-09T16:49:16;2.40;;;1.20;;
13584;SDS011;6863;48.402;9.994;2022-09-09T16:51:46;1.33;;;0.90;;
13584;SDS011;6863;48.402;9.994;2022-09-09T16:54:13;2.33;;;1.80;;
13584;SDS011;6863;48.402;9.994;2022-09-09T16:56:41;2.40;;;1.45;;
13584;SDS011;6863;48.402;9.994;2022-09-09T16:59:09;2.00;;;1.17;;
13584;SDS011;6863;48.402;9.994;2022-09-09T17:01:38;1.67;;;1.08;;
13584;SDS011;6863;48.402;9.994;2022-09-09T17:04:07;2.30;;;1.10;;
13584;SDS011;6863;48.402;9.994;2022-09-09T17:06:34;1.20;;;1.10;;
13584;SDS011;6863;48.402;9.994;2022-09-09T17:09:03;1.23;;;1.10;;
13584;SDS011;6863;48.402;9.994;2022-09-09T17:11:31;2.80;;;1.30;;
13584;SDS011;6863;48.402;9.994;2022-09-09T17:13:57;4.07;;;1.60;;
13584;SDS011;6863;48.402;9.994;2022-09-09T17:16:24;6.32;;;1.52;;